Afton, CA

8:38 AM PDT on April 24, 2017 (GMT -0700)
Riverside Road | | Change Station
Active Advisory: Wind Advisory

Elev 1814 ft 34.91 °N, 116.66 °W | Updated 11 seconds ago

Partly Cloudy
Partly Cloudy
64.8 °F
Feels Like 64.8 °F
N
36.0
Wind Variable Wind from NW
Gusts 52.0 mph

Today
High -- | Low -- °F
--% Chance of Precip.
Yesterday
High -- | Low -- °F
Precip. -- in
Pressure 29.74 in
Visibility 10.0 miles
Clouds Few 20000 ft
Dew Point 33 °F
Humidity 31%
Rainfall 0.00 in
Snow Depth Not available.
6:02 AM 7:25 PM
Waning Crescent, 5% visible
METAR KBYS 241455Z AUTO 21012G20KT 10SM FEW200 16/M02 A2979 RMK AO2 SLP071 WND DATA ESTMD T01561016 53006
Pressure 29.74 in
Visibility 10.0 miles
Clouds Few 20000 ft
Dew Point 33 °F
Humidity 31%
Rainfall 0.00 in
Snow Depth Not available.
6:02 AM 7:25 PM
Waning Crescent, 5% visible
METAR KBYS 241455Z AUTO 21012G20KT 10SM FEW200 16/M02 A2979 RMK AO2 SLP071 WND DATA ESTMD T01561016 53006

Get Your Daily Forecast Email!

Thanks for signing up!

Be on the lookout for a verification email in your inbox.

You'll start receiving severe weather alerts in your inbox..

×

10-Day Weather Forecast

Almanac

Astronomy

Apr. 24, 2017 Rise Set
Actual Time
Civil Twilight
Nautical Twilight
Astronomical Twilight
Moon
Length of Visible Light
Length of Day
Tomorrow will be .
, % of the Moon is Illuminated

Today's Extremes

State Highs State Lows

Community

WunderPhotos

WunderBlog® & News

Nearby

Air Quality

  Air Quality AQ Index Pollutant
Not available.

Snow Depth

Station Depth Elevation

Earthquake Activity

City Distance Mag. Time & Date
Minimum magnitude displayed is 2.5.

Coastal Water Temperatures

Place Temperature

Stations

Nearby Weather Stations

Station Location Temp. Windchill Dew Point Humidity Wind Precip. Elev Updated Type
                   

Watches & Warnings

Wind Advisory
Issued: 3:20 AM PDT Apr. 24, 2017 – National Weather Service

... Wind Advisory remains in effect from noon today to 5 am PDT
Tuesday...

* timing... winds will increase this afternoon and last into the
overnight hours.

* Winds... west to southwest 20 to 30 mph with gusts 40 to 45 mph.

* Impacts... strong Crosswinds will make travel difficult,
especially for high profile vehicles. Blowing dust and sand
may reduce visibility at times. Unsecured objects could be
blown around.

Precautionary/preparedness actions...

A Wind Advisory means strong winds gusting over 40 mph can make
driving difficult... especially for high profile vehicles. Use
extra caution.